Camp Wood, TX (78833)

4:04 PM CST on February 10, 2016 (GMT -0600)
Boone Ranch | | Change Station
CLOSE
Current Station
Personal Weather Station
Location: Barksdale, TX
Elevation: 1490 ft
Nearby Weather Stations

Elev 1490 ft 29.70 °N, 100.04 °W | Updated 4 seconds ago

Clear
Clear
75.7 °F
Feels Like 76 °F
N
4.0
Wind Variable Wind from WSW
Gusts 4.9 mph

Today
High -- | Low -- °F
--% Chance of Precip.
Yesterday
High -- | Low -- °F
Precip. -- in
Pressure 30.27 in
Visibility 10.0 miles
Clouds Clear
Heat Index 76 °F
Dew Point 23 °F
Humidity 14%
Rainfall 0.00 in
Snow Depth Not available.
7:23 AM 6:24 PM
Waxing Crescent, 7% visible
METAR KECU 102155Z AUTO 23008KT 020V030 10SM CLR 23/M01 A3027 RMK AO2
Pressure 30.27 in
Visibility 10.0 miles
Clouds Clear
Heat Index 76 °F
Dew Point 23 °F
Humidity 14%
Rainfall 0.00 in
Snow Depth Not available.
7:23 AM 6:24 PM
Waxing Crescent, 7% visible
METAR KECU 102155Z AUTO 23008KT 020V030 10SM CLR 23/M01 A3027 RMK AO2

10-Day Weather Forecast

Almanac

Astronomy

Feb. 10, 2016 Rise Set
Actual Time
Civil Twilight
Nautical Twilight
Astronomical Twilight
Moon
Length of Visible Light
Length of Day
Tomorrow will be .
, % of the Moon is Illuminated

Today's Extremes

State Highs State Lows

Community

WunderPhotos

Upload Photos

1,891,959 photos uploaded!

WunderBlog® & News

Nearby

Air Quality

  Air Quality AQ Index Pollutant
Not available.

Snow Depth

Station Depth Elevation

Earthquake Activity

City Distance Mag. Time & Date
Minimum magnitude displayed is 2.5.

Coastal Water Temperatures

Place Temperature

Stations

Nearby Weather Stations

Station Location Temp. Windchill Dew Point Humidity Wind Precip. Elev Updated Type
                   

Watches & Warnings

There are currently no watches in effect.